createdAt,value
2022-07-27T00:00:45.578Z,74.07
2022-07-27T00:01:51.039Z,73.95
2022-07-27T00:02:53.865Z,74.02
2022-07-27T00:03:55.763Z,74.09
2022-07-27T00:04:57.657Z,74.29
2022-07-27T00:05:59.563Z,74.03
2022-07-27T00:07:01.436Z,73.94
2022-07-27T00:08:03.272Z,73.83
2022-07-27T00:09:05.133Z,73.33
2022-07-27T00:10:07.161Z,73.16
2022-07-27T00:11:09.804Z,72.81
2022-07-27T00:12:11.663Z,72.94
2022-07-27T00:13:14.387Z,72.93
2022-07-27T00:14:16.288Z,72.92
2022-07-27T00:15:18.163Z,72.87
2022-07-27T00:16:20.141Z,73.00
2022-07-27T00:17:24.105Z,72.87
2022-07-27T00:18:25.983Z,73.29
2022-07-27T00:19:28.035Z,73.21
2022-07-27T00:20:31.387Z,73.04
2022-07-27T00:21:33.237Z,73.17
2022-07-27T00:22:35.138Z,73.32
2022-07-27T00:23:36.991Z,73.24
2022-07-27T00:24:38.821Z,73.26
2022-07-27T00:25:40.744Z,73.65
2022-07-27T00:26:42.572Z,73.68
2022-07-27T00:27:44.367Z,74.18
2022-07-27T00:28:46.153Z,74.39
2022-07-27T00:29:47.934Z,74.46
2022-07-27T00:30:49.992Z,74.37
2022-07-27T00:31:51.818Z,74.60
2022-07-27T00:32:53.699Z,74.50
2022-07-27T00:33:55.549Z,74.29
2022-07-27T00:34:57.397Z,74.21
2022-07-27T00:35:59.301Z,74.09
2022-07-27T00:37:01.166Z,74.12
2022-07-27T00:38:03.146Z,74.06
2022-07-27T00:39:04.935Z,73.80
2022-07-27T00:40:07.911Z,73.84
2022-07-27T00:41:09.776Z,73.62
2022-07-27T00:42:11.549Z,73.90
2022-07-27T00:43:13.613Z,73.74
2022-07-27T00:44:24.974Z,73.85
2022-07-27T00:45:26.942Z,73.75
2022-07-27T00:46:29.151Z,73.46
2022-07-27T00:47:31.406Z,73.55
2022-07-27T00:48:33.339Z,73.53
2022-07-27T00:49:35.203Z,73.30
2022-07-27T00:50:38.342Z,73.29
2022-07-27T00:51:40.160Z,73.23
2022-07-27T00:52:42.711Z,73.10
2022-07-27T00:53:44.742Z,73.28
2022-07-27T00:54:48.208Z,73.13
2022-07-27T00:55:50.152Z,72.95
2022-07-27T00:56:52.110Z,72.94
2022-07-27T00:57:59.286Z,72.61
2022-07-27T00:59:01.529Z,72.27
2022-07-27T01:00:05.032Z,72.32
2022-07-27T01:01:07.027Z,72.15
2022-07-27T01:02:12.022Z,71.98
2022-07-27T01:03:16.265Z,72.18
2022-07-27T01:04:18.427Z,72.31
2022-07-27T01:05:23.602Z,72.58
2022-07-27T01:06:38.267Z,72.73
2022-07-27T01:07:40.574Z,72.80
2022-07-27T01:08:42.833Z,72.75
2022-07-27T01:09:58.199Z,72.64
2022-07-27T01:11:00.476Z,72.70
2022-07-27T01:12:02.425Z,72.71
2022-07-27T01:13:04.286Z,72.61
2022-07-27T01:14:07.433Z,72.56
2022-07-27T01:15:09.389Z,72.53
2022-07-27T01:16:11.510Z,72.96
2022-07-27T01:17:13.411Z,73.68
2022-07-27T01:18:31.772Z,73.85
2022-07-27T01:19:36.206Z,73.85
2022-07-27T01:20:39.691Z,73.84
2022-07-27T01:21:41.452Z,73.65
2022-07-27T01:22:43.317Z,73.75
2022-07-27T01:23:45.159Z,73.59
2022-07-27T01:24:47.851Z,73.25
2022-07-27T01:25:49.653Z,73.19
2022-07-27T01:26:51.530Z,73.05
2022-07-27T01:27:53.424Z,73.17
2022-07-27T01:28:59.079Z,73.72
2022-07-27T01:30:00.912Z,74.18
2022-07-27T01:31:02.938Z,74.04
2022-07-27T01:32:04.939Z,73.49
2022-07-27T01:33:08.123Z,73.50
2022-07-27T01:34:10.017Z,73.31
2022-07-27T01:35:12.066Z,73.28
2022-07-27T01:36:13.881Z,73.41
2022-07-27T01:37:15.662Z,73.53
2022-07-27T01:38:17.541Z,74.07
2022-07-27T01:39:19.534Z,73.98
2022-07-27T01:40:21.796Z,73.85
2022-07-27T01:41:23.716Z,73.84
2022-07-27T01:42:25.627Z,73.75
2022-07-27T01:43:27.552Z,73.51
2022-07-27T01:44:29.366Z,73.33
2022-07-27T01:45:31.336Z,73.49
2022-07-27T01:46:33.203Z,73.32
2022-07-27T01:47:34.987Z,73.05
2022-07-27T01:48:37.001Z,72.63
2022-07-27T01:49:38.870Z,72.52
2022-07-27T01:50:41.075Z,72.61
2022-07-27T01:51:49.344Z,72.46
2022-07-27T01:52:51.153Z,72.74
2022-07-27T01:53:53.011Z,72.56
2022-07-27T01:54:54.910Z,72.70
2022-07-27T01:55:56.694Z,72.77
2022-07-27T01:56:58.628Z,72.79
2022-07-27T01:58:00.640Z,72.53
2022-07-27T01:59:02.545Z,72.48
2022-07-27T02:00:09.210Z,72.71
2022-07-27T02:01:11.040Z,73.07
2022-07-27T02:02:16.029Z,73.13
2022-07-27T02:03:17.977Z,73.11
2022-07-27T02:04:19.862Z,73.47
2022-07-27T02:05:21.851Z,73.30
2022-07-27T02:06:23.758Z,73.33
2022-07-27T02:07:25.632Z,73.19
2022-07-27T02:08:27.871Z,73.09
2022-07-27T02:09:30.413Z,73.23
2022-07-27T02:10:32.824Z,73.75
2022-07-27T02:11:53.333Z,74.60
2022-07-27T02:12:55.119Z,74.30
2022-07-27T02:13:56.916Z,74.49
2022-07-27T02:14:58.794Z,74.46
2022-07-27T02:16:14.651Z,74.66
2022-07-27T02:17:18.841Z,75.08
2022-07-27T02:18:36.171Z,75.06
2022-07-27T02:19:38.584Z,75.47
2022-07-27T02:20:42.529Z,75.84
2022-07-27T02:21:44.560Z,75.86
2022-07-27T02:22:47.428Z,75.70
2022-07-27T02:23:49.251Z,75.46
2022-07-27T02:24:51.067Z,75.60
2022-07-27T02:25:52.962Z,76.01
2022-07-27T02:26:54.807Z,75.72
2022-07-27T02:27:56.632Z,75.79
2022-07-27T02:28:58.484Z,75.77
2022-07-27T02:30:00.456Z,75.74
2022-07-27T02:31:02.807Z,76.35
2022-07-27T02:32:04.758Z,76.13
2022-07-27T02:33:06.808Z,76.12
2022-07-27T02:34:08.615Z,75.73
2022-07-27T02:35:18.961Z,75.51
2022-07-27T02:36:21.888Z,75.67
2022-07-27T02:37:24.120Z,75.59
2022-07-27T02:38:26.147Z,75.30
2022-07-27T02:39:27.994Z,75.41
2022-07-27T02:40:29.846Z,75.16
2022-07-27T02:41:31.666Z,75.09
2022-07-27T02:42:33.547Z,75.05
2022-07-27T02:43:35.387Z,74.91
2022-07-27T02:44:37.381Z,74.86
2022-07-27T02:45:39.205Z,74.62
2022-07-27T02:46:41.748Z,74.63
2022-07-27T02:47:44.387Z,74.61
2022-07-27T02:48:46.274Z,74.60
2022-07-27T02:49:48.230Z,74.91
2022-07-27T02:50:50.113Z,75.02
2022-07-27T02:51:52.511Z,75.14
2022-07-27T02:52:54.435Z,75.20
2022-07-27T02:53:56.683Z,75.04
2022-07-27T02:54:58.675Z,75.01
2022-07-27T02:56:00.536Z,75.26
2022-07-27T02:57:05.414Z,74.95
2022-07-27T02:58:07.535Z,74.91
2022-07-27T02:59:09.682Z,75.15
2022-07-27T03:00:13.017Z,74.88
2022-07-27T03:01:15.410Z,74.97
2022-07-27T03:02:17.321Z,75.07
2022-07-27T03:03:19.239Z,75.42
2022-07-27T03:04:21.338Z,75.28
2022-07-27T03:05:23.278Z,75.26
2022-07-27T03:06:25.079Z,75.39
2022-07-27T03:07:26.940Z,76.03
2022-07-27T03:08:28.874Z,76.40
2022-07-27T03:09:33.227Z,76.22
2022-07-27T03:10:35.624Z,76.54
2022-07-27T03:11:37.726Z,76.55
2022-07-27T03:12:39.578Z,76.25
2022-07-27T03:13:42.387Z,76.01
2022-07-27T03:14:44.314Z,75.94
2022-07-27T03:15:46.154Z,75.54
2022-07-27T03:16:48.041Z,75.56
2022-07-27T03:17:49.869Z,75.60
2022-07-27T03:18:51.689Z,75.38
2022-07-27T03:19:53.649Z,75.70
2022-07-27T03:20:55.540Z,75.68
2022-07-27T03:21:57.397Z,75.61
2022-07-27T03:22:59.211Z,75.62
2022-07-27T03:24:00.961Z,75.50
2022-07-27T03:25:02.895Z,75.64
2022-07-27T03:26:04.709Z,76.20
2022-07-27T03:27:06.508Z,76.40
2022-07-27T03:28:09.994Z,76.01
2022-07-27T03:29:12.068Z,75.83
2022-07-27T03:30:14.237Z,76.13
2022-07-27T03:31:16.115Z,76.17
2022-07-27T03:32:17.935Z,76.47
2022-07-27T03:33:19.732Z,76.55
2022-07-27T03:34:21.632Z,76.84
2022-07-27T03:35:23.562Z,76.22
2022-07-27T03:36:25.543Z,76.26
2022-07-27T03:37:27.373Z,76.26
2022-07-27T03:38:29.253Z,75.95
2022-07-27T03:39:31.116Z,76.12
2022-07-27T03:40:35.855Z,76.11
2022-07-27T03:41:37.709Z,76.29
2022-07-27T03:42:39.632Z,76.11
2022-07-27T03:43:41.420Z,76.13
2022-07-27T03:44:43.741Z,75.94
2022-07-27T03:45:45.792Z,76.10
2022-07-27T03:46:47.605Z,75.92
2022-07-27T03:47:49.369Z,76.11
2022-07-27T03:48:51.197Z,76.01
2022-07-27T03:49:53.193Z,75.83
2022-07-27T03:50:55.246Z,75.86
2022-07-27T03:51:57.133Z,76.15
2022-07-27T03:52:58.956Z,76.08
2022-07-27T03:54:01.110Z,75.72
2022-07-27T03:55:03.318Z,75.73
2022-07-27T03:56:05.527Z,75.65
2022-07-27T03:57:07.373Z,75.69
2022-07-27T03:58:09.166Z,75.47
2022-07-27T03:59:11.263Z,75.54
2022-07-27T04:00:14.383Z,76.12
2022-07-27T04:01:16.302Z,76.75
2022-07-27T04:02:18.196Z,76.79
2022-07-27T04:03:20.033Z,76.71
2022-07-27T04:04:21.799Z,76.42
2022-07-27T04:05:23.613Z,76.31
2022-07-27T04:06:31.232Z,76.08
2022-07-27T04:07:33.228Z,76.09
2022-07-27T04:08:35.034Z,76.06
2022-07-27T04:09:37.909Z,76.54
2022-07-27T04:10:42.258Z,76.33
2022-07-27T04:11:50.872Z,76.66
2022-07-27T04:12:53.543Z,77.15
2022-07-27T04:13:55.327Z,76.78
2022-07-27T04:14:57.245Z,76.45
2022-07-27T04:15:59.127Z,76.50
2022-07-27T04:17:01.076Z,76.66
2022-07-27T04:18:03.066Z,76.86
2022-07-27T04:19:04.947Z,76.47
2022-07-27T04:20:07.374Z,76.44
2022-07-27T04:21:09.253Z,76.56
2022-07-27T04:22:11.179Z,76.64
2022-07-27T04:23:13.192Z,76.95
2022-07-27T04:24:15.191Z,77.09
2022-07-27T04:25:17.272Z,77.09
2022-07-27T04:26:19.646Z,76.84
2022-07-27T04:27:21.543Z,76.59
2022-07-27T04:28:23.344Z,76.37
2022-07-27T04:29:25.251Z,76.51
2022-07-27T04:30:27.098Z,77.23
2022-07-27T04:31:28.876Z,77.70
2022-07-27T04:32:30.842Z,77.78
2022-07-27T04:33:32.651Z,77.48
2022-07-27T04:34:34.504Z,77.61
2022-07-27T04:35:36.336Z,77.69
2022-07-27T04:36:38.470Z,77.67
2022-07-27T04:37:40.472Z,77.42
2022-07-27T04:38:59.948Z,77.37
2022-07-27T04:40:01.846Z,76.98
2022-07-27T04:41:03.636Z,76.84
2022-07-27T04:42:05.613Z,76.87
2022-07-27T04:43:07.659Z,76.82
2022-07-27T04:44:09.826Z,77.07
2022-07-27T04:45:11.646Z,76.86
2022-07-27T04:46:15.813Z,76.64
2022-07-27T04:47:17.681Z,77.01
2022-07-27T04:48:19.651Z,76.77
2022-07-27T04:49:21.539Z,76.89
2022-07-27T04:50:23.442Z,77.03
2022-07-27T04:51:25.466Z,77.22
2022-07-27T04:52:27.361Z,77.06
2022-07-27T04:53:31.189Z,77.11
2022-07-27T04:54:33.045Z,77.14
2022-07-27T04:55:34.848Z,77.45
2022-07-27T04:56:36.716Z,77.33
2022-07-27T04:57:39.939Z,77.56
2022-07-27T04:58:41.906Z,77.33
2022-07-27T04:59:43.599Z,77.47
2022-07-27T05:00:45.497Z,77.41
2022-07-27T05:01:47.418Z,77.42
2022-07-27T05:02:49.319Z,77.97
2022-07-27T05:03:51.728Z,77.97
2022-07-27T05:04:53.580Z,77.67
2022-07-27T05:05:55.557Z,77.77
2022-07-27T05:06:57.492Z,77.47
2022-07-27T05:07:59.368Z,77.43
2022-07-27T05:09:01.170Z,77.27
2022-07-27T05:10:03.521Z,77.25
2022-07-27T05:11:05.365Z,77.53
2022-07-27T05:12:07.388Z,77.62
2022-07-27T05:13:09.167Z,77.80
2022-07-27T05:14:11.174Z,77.98
2022-07-27T05:15:13.056Z,78.66
2022-07-27T05:16:14.842Z,78.85
2022-07-27T05:17:16.698Z,78.24
2022-07-27T05:18:19.490Z,78.40
2022-07-27T05:19:21.333Z,78.09
2022-07-27T05:20:23.188Z,77.90
2022-07-27T05:21:25.477Z,78.00
2022-07-27T05:22:27.279Z,78.75
2022-07-27T05:23:29.114Z,79.27
2022-07-27T05:24:31.033Z,79.57
2022-07-27T05:25:32.821Z,79.77
2022-07-27T05:26:34.660Z,79.50
2022-07-27T05:27:37.719Z,79.33
2022-07-27T05:28:56.341Z,78.78
2022-07-27T05:29:58.544Z,78.98
2022-07-27T05:31:00.490Z,79.58
2022-07-27T05:32:02.396Z,79.56
2022-07-27T05:33:04.316Z,78.94
2022-07-27T05:34:06.117Z,78.79
2022-07-27T05:35:08.460Z,78.64
2022-07-27T05:36:10.294Z,79.35
2022-07-27T05:37:12.500Z,79.77
2022-07-27T05:38:14.317Z,79.72
2022-07-27T05:39:16.442Z,79.44
2022-07-27T05:40:18.678Z,79.35
2022-07-27T05:41:25.016Z,79.11
2022-07-27T05:42:26.852Z,78.92
2022-07-27T05:43:28.712Z,78.64
2022-07-27T05:44:30.614Z,78.65
2022-07-27T05:45:32.548Z,78.63
2022-07-27T05:46:35.089Z,78.59
2022-07-27T05:47:37.446Z,78.87
2022-07-27T05:48:39.331Z,78.55
2022-07-27T05:49:41.307Z,78.23
2022-07-27T05:50:44.289Z,78.20
2022-07-27T05:51:46.136Z,78.22
2022-07-27T05:52:47.955Z,78.25
2022-07-27T05:53:49.825Z,79.24
2022-07-27T05:54:51.689Z,79.35
2022-07-27T05:55:58.619Z,79.42
2022-07-27T05:57:01.347Z,79.52
2022-07-27T05:58:03.242Z,79.18
2022-07-27T05:59:07.484Z,78.86
2022-07-27T06:00:10.160Z,78.77
2022-07-27T06:01:12.159Z,78.68
2022-07-27T06:02:14.090Z,78.91
2022-07-27T06:03:15.966Z,78.96
2022-07-27T06:04:17.852Z,79.39
2022-07-27T06:05:19.698Z,79.26
2022-07-27T06:06:39.940Z,79.18
2022-07-27T06:07:59.735Z,79.92
2022-07-27T06:09:01.592Z,79.14
2022-07-27T06:10:03.903Z,78.86
2022-07-27T06:11:05.897Z,78.54
2022-07-27T06:12:08.037Z,78.48
2022-07-27T06:13:10.639Z,78.37
2022-07-27T06:14:12.465Z,78.12
2022-07-27T06:15:15.484Z,77.89
2022-07-27T06:16:17.321Z,77.83
2022-07-27T06:17:19.831Z,77.75
2022-07-27T06:18:21.633Z,77.83
2022-07-27T06:19:23.452Z,77.91
2022-07-27T06:20:37.801Z,77.55
2022-07-27T06:21:39.582Z,77.53
2022-07-27T06:22:54.621Z,77.67
2022-07-27T06:23:56.453Z,77.40
2022-07-27T06:24:59.055Z,77.40
2022-07-27T06:26:00.935Z,77.39
2022-07-27T06:27:02.744Z,77.34
2022-07-27T06:28:05.255Z,77.21
2022-07-27T06:29:10.586Z,77.24
2022-07-27T06:30:14.236Z,77.01
2022-07-27T06:31:16.092Z,76.62
2022-07-27T06:32:18.271Z,76.83
2022-07-27T06:33:28.817Z,77.01
2022-07-27T06:34:30.952Z,76.92
2022-07-27T06:35:39.022Z,76.73
2022-07-27T06:36:42.636Z,76.78
2022-07-27T06:37:44.426Z,77.06
2022-07-27T06:38:46.338Z,77.09
2022-07-27T06:39:48.138Z,76.54
2022-07-27T06:40:53.180Z,77.28
2022-07-27T06:41:58.050Z,77.09
2022-07-27T06:43:00.486Z,76.56
2022-07-27T06:44:02.633Z,76.54
2022-07-27T06:45:05.083Z,76.49
2022-07-27T06:46:07.861Z,76.30
2022-07-27T06:47:09.819Z,76.04
2022-07-27T06:48:12.033Z,76.33
2022-07-27T06:49:14.374Z,76.48
2022-07-27T06:50:16.480Z,76.68
2022-07-27T06:51:18.268Z,76.79
2022-07-27T06:52:20.282Z,76.68
2022-07-27T06:53:22.403Z,76.60
2022-07-27T06:54:24.326Z,76.41
2022-07-27T06:55:26.222Z,76.01
2022-07-27T06:56:28.011Z,75.74
2022-07-27T06:57:29.913Z,75.67
2022-07-27T06:58:32.829Z,74.96
2022-07-27T06:59:42.877Z,75.72
2022-07-27T07:00:46.126Z,75.82
2022-07-27T07:01:49.010Z,75.60
2022-07-27T07:02:55.580Z,75.55
2022-07-27T07:03:59.841Z,75.28
2022-07-27T07:05:01.824Z,75.35
2022-07-27T07:06:03.821Z,75.46
2022-07-27T07:07:07.368Z,74.67
2022-07-27T07:08:12.134Z,74.86
2022-07-27T07:09:14.268Z,75.01
2022-07-27T07:10:16.288Z,75.21
2022-07-27T07:11:18.427Z,75.38
2022-07-27T07:12:20.439Z,75.41
2022-07-27T07:13:22.278Z,75.88
2022-07-27T07:14:25.861Z,75.48
2022-07-27T07:15:27.751Z,75.68
2022-07-27T07:16:29.718Z,75.38
2022-07-27T07:17:31.563Z,75.53
2022-07-27T07:18:33.458Z,75.86
2022-07-27T07:19:35.244Z,75.93
2022-07-27T07:20:38.228Z,76.07
2022-07-27T07:21:40.212Z,76.29
2022-07-27T07:22:42.358Z,75.35
2022-07-27T07:23:44.237Z,76.47
2022-07-27T07:24:46.063Z,76.26
2022-07-27T07:25:48.027Z,76.01
2022-07-27T07:26:49.963Z,76.22
2022-07-27T07:27:52.430Z,76.38
2022-07-27T07:28:54.260Z,76.26
2022-07-27T07:29:56.343Z,75.92
2022-07-27T07:30:58.332Z,75.94
2022-07-27T07:32:00.832Z,76.09
2022-07-27T07:33:02.987Z,75.87
2022-07-27T07:34:05.744Z,75.91
2022-07-27T07:35:08.000Z,75.97
2022-07-27T07:36:14.232Z,75.87
2022-07-27T07:37:17.553Z,75.89
2022-07-27T07:38:19.529Z,75.44
2022-07-27T07:39:21.701Z,75.24
2022-07-27T07:41:45.404Z,74.08
2022-07-27T07:42:54.899Z,74.21
2022-07-27T07:43:56.791Z,73.10
2022-07-27T07:44:58.668Z,73.39
2022-07-27T07:46:00.490Z,73.19
2022-07-27T07:47:02.416Z,73.58
2022-07-27T07:48:05.871Z,72.87
2022-07-27T07:49:07.784Z,73.69
2022-07-27T07:50:09.749Z,73.63
2022-07-27T07:51:12.558Z,73.73
2022-07-27T07:52:14.461Z,73.58
2022-07-27T07:53:16.365Z,73.75
2022-07-27T07:54:18.281Z,73.74
2022-07-27T07:55:24.200Z,73.78
2022-07-27T07:56:25.971Z,73.49
2022-07-27T07:57:28.299Z,73.63
2022-07-27T07:58:30.321Z,73.75
2022-07-27T07:59:32.141Z,73.50
2022-07-27T08:00:34.059Z,73.50
2022-07-27T08:01:36.068Z,73.05
2022-07-27T08:02:48.852Z,72.75
2022-07-27T08:03:52.692Z,72.70
2022-07-27T08:04:54.471Z,72.85
2022-07-27T08:05:56.382Z,72.31
2022-07-27T08:06:58.249Z,72.23
2022-07-27T08:08:00.301Z,72.44
2022-07-27T08:09:02.219Z,71.68
2022-07-27T08:10:04.701Z,72.25
2022-07-27T08:11:07.184Z,71.93
2022-07-27T08:12:09.024Z,71.82
2022-07-27T08:13:10.835Z,71.70
2022-07-27T08:14:12.662Z,71.74
2022-07-27T08:15:15.220Z,72.08
2022-07-27T08:16:17.492Z,71.51
2022-07-27T08:17:19.360Z,72.09
2022-07-27T08:18:21.566Z,72.13
2022-07-27T08:19:23.434Z,72.25
2022-07-27T08:20:28.511Z,72.64
2022-07-27T08:21:30.816Z,72.48
2022-07-27T08:22:37.373Z,72.23
2022-07-27T08:23:39.288Z,72.92
2022-07-27T08:24:41.225Z,73.44
2022-07-27T08:25:43.080Z,72.75
2022-07-27T08:26:44.984Z,72.97
2022-07-27T08:27:47.512Z,73.05
2022-07-27T08:28:49.669Z,72.86
2022-07-27T08:29:52.553Z,72.78
2022-07-27T08:30:54.506Z,72.69
2022-07-27T08:31:56.517Z,72.75
2022-07-27T08:33:01.424Z,72.62
2022-07-27T08:34:03.421Z,72.53
2022-07-27T08:35:05.426Z,72.73
2022-07-27T08:36:08.226Z,72.59
2022-07-27T08:37:15.233Z,72.76
2022-07-27T08:38:17.470Z,72.53
2022-07-27T08:40:05.441Z,71.85
2022-07-27T08:40:44.336Z,71.25
2022-07-27T08:41:47.675Z,71.63
2022-07-27T08:42:49.653Z,70.87
2022-07-27T08:43:53.293Z,70.54
2022-07-27T08:44:55.567Z,70.15
2022-07-27T08:45:58.704Z,70.53
2022-07-27T08:47:01.851Z,70.06
2022-07-27T08:48:04.248Z,70.45
2022-07-27T08:49:07.148Z,70.67
2022-07-27T08:50:25.880Z,70.76
2022-07-27T08:51:28.187Z,70.97
2022-07-27T08:52:30.561Z,70.79
2022-07-27T08:53:34.239Z,71.55
2022-07-27T08:54:54.464Z,71.65
2022-07-27T08:55:57.863Z,71.54
2022-07-27T08:56:59.655Z,71.62
2022-07-27T08:58:03.408Z,71.53
2022-07-27T08:59:05.734Z,71.81
2022-07-27T09:00:08.200Z,71.88
2022-07-27T09:01:10.729Z,71.90
2022-07-27T09:02:14.702Z,72.08
2022-07-27T09:03:20.040Z,71.82
2022-07-27T09:04:23.086Z,71.87
2022-07-27T09:05:24.990Z,72.01
2022-07-27T09:06:39.996Z,72.33
2022-07-27T09:07:41.924Z,72.71
2022-07-27T09:08:58.193Z,73.18
2022-07-27T09:10:00.129Z,73.52
2022-07-27T09:11:03.788Z,73.38
2022-07-27T09:12:05.673Z,73.82
2022-07-27T09:13:18.756Z,74.51
2022-07-27T09:14:30.395Z,74.34
2022-07-27T09:15:34.614Z,74.59
2022-07-27T09:17:14.986Z,75.53
2022-07-27T09:17:58.616Z,75.35
2022-07-27T09:19:01.552Z,75.40
2022-07-27T09:20:06.912Z,76.34
2022-07-27T09:21:11.618Z,76.38
2022-07-27T09:22:13.475Z,75.95
2022-07-27T09:23:26.191Z,76.39
2022-07-27T09:24:46.373Z,76.78
2022-07-27T09:26:12.523Z,76.99
2022-07-27T09:27:11.268Z,76.67
2022-07-27T09:28:13.186Z,76.88
2022-07-27T09:29:16.279Z,76.98
2022-07-27T09:30:19.158Z,76.91
2022-07-27T09:31:21.699Z,77.00
2022-07-27T09:32:23.704Z,77.15
2022-07-27T09:33:25.601Z,76.79
2022-07-27T09:34:34.699Z,77.47
2022-07-27T09:35:36.903Z,77.21
2022-07-27T09:36:56.339Z,77.00
2022-07-27T09:38:16.431Z,77.40
2022-07-27T09:39:22.066Z,77.75
2022-07-27T09:40:25.795Z,78.37
2022-07-27T09:41:27.829Z,78.14
2022-07-27T09:43:14.622Z,78.38
2022-07-27T09:44:29.986Z,77.60
2022-07-27T09:45:33.092Z,77.56
2022-07-27T09:46:37.919Z,77.85
2022-07-27T09:47:40.039Z,78.14
2022-07-27T09:48:42.386Z,77.87
2022-07-27T09:49:44.355Z,77.18
2022-07-27T09:51:02.319Z,76.86
2022-07-27T09:52:05.525Z,77.00
2022-07-27T09:53:41.731Z,76.92
2022-07-27T09:54:44.571Z,76.88
2022-07-27T09:55:47.563Z,76.83
2022-07-27T09:56:58.242Z,75.91
2022-07-27T09:58:00.187Z,76.73
2022-07-27T09:59:03.478Z,76.50
2022-07-27T10:00:14.034Z,76.53
2022-07-27T10:01:22.399Z,76.69
2022-07-27T10:02:24.613Z,76.37
2022-07-27T10:03:26.548Z,76.32
2022-07-27T10:04:28.511Z,76.37
2022-07-27T10:05:30.987Z,76.08
2022-07-27T10:06:47.699Z,75.92
2022-07-27T10:07:55.581Z,75.70
2022-07-27T10:08:58.304Z,76.10
2022-07-27T10:10:02.277Z,75.03
2022-07-27T10:11:04.601Z,75.30
2022-07-27T10:12:09.875Z,74.59
2022-07-27T10:13:11.823Z,74.50
2022-07-27T10:14:14.023Z,74.61
2022-07-27T10:15:17.030Z,74.81
2022-07-27T10:16:23.177Z,74.57
2022-07-27T10:17:25.414Z,74.94
2022-07-27T10:18:39.462Z,74.89
2022-07-27T10:19:47.057Z,75.02
2022-07-27T10:20:49.180Z,74.19
2022-07-27T10:21:51.015Z,74.47
2022-07-27T10:22:56.896Z,73.39
2022-07-27T10:24:00.306Z,74.17
2022-07-27T10:25:02.312Z,72.92
2022-07-27T10:26:20.776Z,72.67
2022-07-27T10:27:28.276Z,71.64
2022-07-27T10:28:30.379Z,72.40
2022-07-27T10:29:32.339Z,72.62
2022-07-27T10:30:34.223Z,72.52
2022-07-27T10:31:40.043Z,71.60
2022-07-27T10:32:45.012Z,72.06
2022-07-27T10:33:54.064Z,72.01
2022-07-27T10:34:55.951Z,70.38
2022-07-27T10:35:57.756Z,70.35
2022-07-27T10:37:07.640Z,70.11
2022-07-27T10:38:15.482Z,70.41
2022-07-27T10:39:28.056Z,70.58
2022-07-27T10:40:35.959Z,70.37
2022-07-27T10:41:41.952Z,70.52
2022-07-27T10:42:47.825Z,69.47
2022-07-27T10:44:32.345Z,69.76
2022-07-27T10:45:57.818Z,70.45
2022-07-27T10:47:04.587Z,69.29
2022-07-27T10:48:06.415Z,69.58
2022-07-27T10:49:18.735Z,69.36
2022-07-27T10:50:25.106Z,69.20
2022-07-27T10:51:34.880Z,68.66
2022-07-27T10:52:56.200Z,69.05
2022-07-27T10:54:11.873Z,69.71
2022-07-27T10:55:38.405Z,69.46
2022-07-27T10:56:47.164Z,69.40
2022-07-27T10:57:49.364Z,69.85
2022-07-27T10:58:52.027Z,69.95
2022-07-27T11:00:12.234Z,69.59
2022-07-27T11:01:15.869Z,68.42
2022-07-27T11:02:19.226Z,68.38
2022-07-27T11:03:21.676Z,69.20
2022-07-27T11:04:24.691Z,68.82
2022-07-27T11:05:58.669Z,68.35
2022-07-27T11:07:23.149Z,68.26
2022-07-27T11:08:36.060Z,69.16
2022-07-27T11:11:02.775Z,68.68
2022-07-27T11:12:08.588Z,68.84
2022-07-27T11:13:11.601Z,68.88
2022-07-27T11:14:13.663Z,69.47
2022-07-27T11:15:20.755Z,69.35
2022-07-27T11:16:28.543Z,69.13
2022-07-27T11:19:01.807Z,69.28
2022-07-27T11:20:04.147Z,67.78
2022-07-27T11:21:26.511Z,68.23
2022-07-27T11:22:53.757Z,68.26
2022-07-27T11:23:54.041Z,68.26
2022-07-27T11:24:56.048Z,67.89
2022-07-27T11:26:01.707Z,68.54
2022-07-27T11:27:17.121Z,68.89
2022-07-27T11:28:27.873Z,68.91
2022-07-27T11:29:33.372Z,69.20
2022-07-27T11:30:42.019Z,68.98
2022-07-27T11:31:55.270Z,67.72
2022-07-27T11:33:03.513Z,67.79
2022-07-27T11:34:05.908Z,67.62
2022-07-27T11:35:19.356Z,67.55
2022-07-27T11:36:22.510Z,67.36
2022-07-27T11:37:24.505Z,67.76
2022-07-27T11:38:26.328Z,67.70
2022-07-27T11:39:58.852Z,67.55
2022-07-27T11:40:57.341Z,67.90
2022-07-27T11:42:08.521Z,67.39
2022-07-27T11:43:14.585Z,67.37
2022-07-27T11:44:17.767Z,67.37
2022-07-27T11:45:29.852Z,67.30
2022-07-27T11:46:33.861Z,67.57
2022-07-27T11:47:37.311Z,67.55
2022-07-27T11:49:03.969Z,67.60
2022-07-27T11:50:08.036Z,66.93
2022-07-27T11:51:09.889Z,67.01
2022-07-27T11:52:11.823Z,67.08
2022-07-27T11:53:13.639Z,67.39
2022-07-27T11:54:18.227Z,66.63
2022-07-27T11:55:20.028Z,66.85
2022-07-27T11:56:23.299Z,67.46
2022-07-27T11:57:34.251Z,67.16
2022-07-27T11:59:02.074Z,67.40
2022-07-27T12:00:04.349Z,67.04
2022-07-27T12:01:06.191Z,67.48
2022-07-27T12:02:09.548Z,67.48
2022-07-27T12:03:21.511Z,67.06
2022-07-27T12:04:25.170Z,66.10
2022-07-27T12:05:27.054Z,66.56
2022-07-27T12:06:29.364Z,66.84
2022-07-27T12:07:32.443Z,67.40
2022-07-27T12:08:34.336Z,66.96
2022-07-27T12:09:46.112Z,66.75
2022-07-27T12:10:58.092Z,66.74
2022-07-27T12:12:01.346Z,66.79
2022-07-27T12:13:03.233Z,66.98
2022-07-27T12:14:11.617Z,67.00
2022-07-27T12:15:44.783Z,67.50
2022-07-27T12:16:35.460Z,67.62
2022-07-27T12:17:37.966Z,67.98
2022-07-27T12:18:43.835Z,67.46
2022-07-27T12:20:11.937Z,67.26
2022-07-27T12:21:18.325Z,66.71
2022-07-27T12:22:24.843Z,66.43
2022-07-27T12:23:29.508Z,67.13
2022-07-27T12:24:39.201Z,67.21
2022-07-27T12:25:41.558Z,67.85
2022-07-27T12:26:43.374Z,67.51
2022-07-27T12:27:57.155Z,67.91
2022-07-27T12:29:10.040Z,68.65
2022-07-27T12:30:13.257Z,69.29
2022-07-27T12:31:18.556Z,68.84
2022-07-27T12:32:20.604Z,68.89
2022-07-27T12:33:35.025Z,68.77
2022-07-27T12:34:36.873Z,68.86
2022-07-27T12:35:46.998Z,68.18
2022-07-27T12:36:49.128Z,68.92
2022-07-27T12:38:01.357Z,69.18
2022-07-27T12:39:03.242Z,68.94
2022-07-27T12:40:13.195Z,68.65
2022-07-27T12:41:26.928Z,68.57
2022-07-27T12:42:33.417Z,68.47
2022-07-27T12:43:35.317Z,68.22
2022-07-27T12:44:39.069Z,68.40
2022-07-27T12:45:40.911Z,69.33
2022-07-27T12:47:02.623Z,69.39
2022-07-27T12:48:16.872Z,68.02
2022-07-27T12:49:19.387Z,68.88
2022-07-27T12:50:28.258Z,69.47
2022-07-27T12:51:30.140Z,68.74
2022-07-27T12:52:32.822Z,69.78
2022-07-27T12:53:35.858Z,69.89
2022-07-27T12:54:38.387Z,70.42
2022-07-27T12:55:40.986Z,70.58
2022-07-27T12:56:42.937Z,70.21
2022-07-27T12:58:00.285Z,69.90
2022-07-27T12:59:03.507Z,69.96
2022-07-27T13:00:07.115Z,70.05
2022-07-27T13:01:09.048Z,70.05
2022-07-27T13:02:10.980Z,69.63
2022-07-27T13:03:12.816Z,69.54
2022-07-27T13:04:14.587Z,69.91
2022-07-27T13:05:17.050Z,70.26
2022-07-27T13:06:19.013Z,70.26
2022-07-27T13:07:21.115Z,70.33
2022-07-27T13:08:23.668Z,70.27
2022-07-27T13:09:25.506Z,70.24
2022-07-27T13:10:50.202Z,70.64
2022-07-27T13:11:54.750Z,70.43
2022-07-27T13:13:00.543Z,70.11
2022-07-27T13:14:02.363Z,70.55
2022-07-27T13:15:05.205Z,70.62
2022-07-27T13:16:07.019Z,70.79
2022-07-27T13:17:09.118Z,71.01
2022-07-27T13:18:11.626Z,71.24
2022-07-27T13:19:16.734Z,71.39
2022-07-27T13:20:19.170Z,71.89
2022-07-27T13:21:20.933Z,71.71
2022-07-27T13:22:22.867Z,71.82
2022-07-27T13:23:24.856Z,71.89
2022-07-27T13:24:26.706Z,72.01
2022-07-27T13:25:28.577Z,72.05
2022-07-27T13:26:30.382Z,71.90
2022-07-27T13:27:32.323Z,71.87
2022-07-27T13:28:34.313Z,72.14
2022-07-27T13:29:36.131Z,71.99
2022-07-27T13:30:38.093Z,72.19
2022-07-27T13:31:46.991Z,72.16
2022-07-27T13:32:52.160Z,71.72
2022-07-27T13:33:54.070Z,71.68
2022-07-27T13:34:55.936Z,72.06
2022-07-27T13:36:00.190Z,71.64
2022-07-27T13:37:03.167Z,71.60
2022-07-27T13:38:05.279Z,71.77
2022-07-27T13:39:08.162Z,71.42
2022-07-27T13:40:10.142Z,71.75
2022-07-27T13:41:12.012Z,71.47
2022-07-27T13:42:15.403Z,71.79
2022-07-27T13:43:17.276Z,72.21
2022-07-27T13:44:49.984Z,71.71
2022-07-27T13:45:43.341Z,71.80
2022-07-27T13:46:45.576Z,71.87
2022-07-27T13:47:47.459Z,71.79
2022-07-27T13:48:49.379Z,71.83
2022-07-27T13:49:51.307Z,71.71
2022-07-27T13:50:53.366Z,71.85
2022-07-27T13:51:55.274Z,71.78